Weather observations for the past three days for
Burns Municipal Airport
Metric (Imperial)
Date Time (pdt) Wind (kph) Vis. (km) Weather Sky Cond. Temperature (ºC) Relative Humidity Wind Chill (°C) Heat Index (°C) Pressure Precipitation (cm)
Air Dwpt 6 hour altimeter (cm) sea level (mb) 1 hr 3 hr 6 hr
Max. Min.
10 07:53 Calm 16.09 Fair CLR 13.3 -1.1 37% 76.43 1016.7
10 06:53 NW 6 16.09 Fair CLR 7.8 -1.7 51% 76.4 1016.6
10 05:53 NW 9 16.09 Fair CLR 1.1 -3.9 70% -1 76.4 1017.1
10 04:53 NE 6 16.09 Fair CLR -0.6 -4.4 6.1 -0.6 76% 76.4 1017.4
10 03:53 W 9 14.48 Fair CLR 1.7 -3.9 67% -1 76.43 1017.3
10 02:53 Calm 16.09 Fair CLR 2.8 -3.9 62% 76.43 1017.3
10 01:53 NW 6 16.09 Fair CLR 2.2 -3.9 64% 76.45 1018.0
10 00:53 N 7 16.09 Fair CLR 3.3 -2.2 68% 2 76.45 1018.1
09 23:53 W 11 16.09 Fair CLR 4.4 -1.7 65% 2 76.45 1017.8
09 22:53 NW 11 16.09 Fair CLR 5 -2.2 23.3 5 60% 3 76.43 1017.9
09 21:53 N 6 16.09 Fair CLR 7.2 -1.1 56% 76.45 1018.1
09 20:53 NE 11 16.09 Fair CLR 11.1 0 47% 76.4 1017.3
09 19:53 SE 7 16.09 Fair CLR 15.6 2.2 41% 76.38 1016.8
09 18:53 S 7 16.09 Fair CLR 20.6 0.6 26% 76.38 1017.0
09 17:53 S 11 16.09 Fair CLR 23.3 -4.4 15% 76.43 1017.9
09 16:53 Vrbl 7 16.09 Fair CLR 22.8 -5.6 23.9 16.7 15% 76.45 1018.5
09 15:53 Vrbl 6 16.09 Fair CLR 23.3 -4.4 15% 76.48 1018.5
09 14:53 Calm 16.09 Fair CLR 22.2 -5.6 15% 76.53 1019.0
09 13:53 S 13 16.09 Fair CLR 21.1 -5.6 16% 76.58 1019.6
09 12:53 SW 11 16.09 Fair CLR 20 -2.8 21% 76.63 1020.3
09 11:53 S 11 16.09 Fair CLR 18.3 -1.1 27% 76.68 1020.9
09 10:53 SW 9 16.09 Fair CLR 17.2 -0.6 17.2 -2.8 30% 76.68 1021.0
09 09:53 Vrbl 6 16.09 Fair CLR 15 -0.6 35% 76.73 1021.6
09 08:53 Calm 16.09 Fair CLR 12.8 1.7 47% 76.71 1021.6
09 07:53 W 11 16.09 Fair CLR 9.4 1.1 56% 8 76.71 1021.3
09 06:53 Calm 16.09 Fair CLR 2.8 -2.2 70% 76.73 1021.7
09 05:53 Calm 16.09 Fair CLR -2.2 -4.4 85% 76.68 1021.5
09 04:53 Calm 16.09 Fair CLR -2.2 -5 7.8 -2.2 81% 76.68 1021.4
09 03:53 N 9 16.09 Fair CLR -0.6 -3.9 79% -3 76.68 1021.1
09 02:53 W 6 16.09 Fair CLR 2.8 -2.2 70% 76.66 1020.5
09 01:53 S 6 16.09 Fair CLR 3.9 -2.2 65% 76.63 1020.1
09 00:53 SW 9 16.09 Fair CLR 5 -2.8 57% 3 76.61 1019.6
08 23:53 NW 13 16.09 Fair CLR 7.2 -2.2 52% 5 76.56 1018.9
08 22:53 Calm 16.09 Fair CLR 7.8 -3.3 23.3 7.8 46% 76.56 1018.8
08 21:53 NW 17 16.09 Fair CLR 9.4 -3.3 41% 7 76.5 1018.2
08 20:53 NW 13 16.09 Fair CLR 10 -3.3 39% 8 76.48 1018.0
08 19:53 NW 20 16.09 Fair CLR 16.1 -4.4 24% 76.4 1017.1
08 18:53 NW 24 G 35 16.09 Fair CLR 20 -4.4 19% 76.38 1016.6
08 17:53 NW 26 G 44 16.09 Fair CLR 21.7 -5 16% 76.35 1016.9
08 16:53 W 30 G 46 16.09 Fair CLR 22.8 -6.1 23.3 17.8 14% 76.33 1016.2
08 15:53 W 33 G 43 16.09 Fair and Breezy CLR 23.3 -9.4 10% 76.33 1015.9
08 14:53 W 26 G 43 16.09 Fair CLR 22.8 -5 15% 76.35 1016.2
08 13:53 W 22 G 39 16.09 Fair CLR 20.6 -6.7 15% 76.38 1016.6
08 12:53 W 26 G 37 16.09 Fair CLR 21.7 -5.6 16% 76.4 1016.9
08 11:53 W 15 G 31 16.09 Fair CLR 20 -4.4 19% 76.45 1017.7
08 10:53 W 24 G 39 16.09 Fair CLR 18.9 -3.9 19.4 -1.1 21% 76.45 1017.3
08 09:53 W 17 16.09 Fair CLR 18.3 -1.1 27% 76.45 1017.5
08 08:53 SW 6 16.09 Fair CLR 15 0 36% 76.48 1017.6
08 07:53 NW 9 16.09 Fair CLR 9.4 0.6 55% 8 76.48 1018.0
08 06:53 W 7 16.09 Fair CLR 4.4 -1.7 65% 3 76.45 1017.6
08 05:53 Calm 16.09 Fair CLR -1.1 -3.9 82% 76.4 1017.4
08 04:53 Calm 16.09 Fair CLR 0.6 -2.8 11.1 0.6 78% 76.4 1017.3
08 03:53 W 6 16.09 Fair CLR 2.8 -2.8 67% 76.38 1016.5
08 02:53 W 7 16.09 Fair CLR 3.3 -2.8 65% 2 76.38 1016.2
08 01:53 NW 13 16.09 Fair CLR 6.1 -2.2 56% 4 76.35 1015.8
08 00:53 N 13 16.09 Fair CLR 5.6 -2.8 55% 3 76.33 1015.8
07 23:53 Vrbl 7 16.09 Fair CLR 5.6 -2.2 58% 4 76.33 1015.8
07 22:53 Calm 16.09 Fair CLR 10 -1.7 23.9 8.3 44% 76.3 1015.1
07 21:53 Calm 16.09 Fair CLR 8.3 -1.1 52% 76.25 1015.2
07 20:53 NW 13 16.09 Fair CLR 12.8 -1.1 38% 76.2 1014.1
07 19:53 NW 13 16.09 Fair CLR 16.1 0 34% 76.15 1013.4
07 18:53 NW 13 16.09 Mostly Cloudy BKN100 20.6 -0.6 24% 76.12 1013.0
07 17:53 N 24 16.09 Fair CLR 22.8 -3.3 17% 76.15 1013.6
07 16:53 NW 20 16.09 Fair CLR 22.8 -2.2 24.4 17.8 19% 76.15 1013.3
07 15:53 W 24 G 37 16.09 Fair CLR 23.3 -3.9 16% 76.17 1013.4
07 14:53 NW 19 16.09 Fair CLR 23.9 -2.8 17% 24 76.23 1013.9
07 13:53 W 19 G 31 16.09 Fair CLR 23.9 -3.3 16% 24 76.25 1014.6
07 12:53 W 19 G 33 12.87 Fair CLR 22.2 -1.1 21% 76.3 1014.7
07 11:53 NW 13 14.48 Fair CLR 20 2.2 31% 76.35 1015.5
07 10:53 W 17 12.87 Fair CLR 17.8 2.8 17.8 0.6 37% 76.4 1016.4
07 09:53 W 9 9.66 Fair with Haze CLR 16.1 3.9 44% 76.4 1016.3
07 08:53 W 13 16.09 Fair CLR 14.4 3.9 50% 76.43 1016.6
Date Time (pdt) Wind (kph) Vis. (km) Weather Sky Cond. Air Dwpt Max. Min. Relative Humidity Wind Chill (°C) Heat Index (°C) altimeter (cm) sea level (mb) 1 hr 3 hr 6 hr
6 hour
Temperature (ºC) Pressure Precipitation (cm)